sensor_id;sensor_type;location;lat;lon;timestamp;temperature;humidity
34698;DHT22;61391;50.922;6.928;2023-07-13T00:01:37;19.50;99.90
34698;DHT22;61391;50.922;6.928;2023-07-13T00:04:04;19.40;99.90
34698;DHT22;61391;50.922;6.928;2023-07-13T00:06:33;19.30;99.90
34698;DHT22;61391;50.922;6.928;2023-07-13T00:08:59;19.20;99.90
34698;DHT22;61391;50.922;6.928;2023-07-13T00:11:26;19.20;99.90
34698;DHT22;61391;50.922;6.928;2023-07-13T00:13:51;19.20;99.90
34698;DHT22;61391;50.922;6.928;2023-07-13T00:16:30;19.20;99.90
34698;DHT22;61391;50.922;6.928;2023-07-13T00:18:59;19.10;99.90
34698;DHT22;61391;50.922;6.928;2023-07-13T00:21:47;19.30;99.90
34698;DHT22;61391;50.922;6.928;2023-07-13T00:24:16;19.20;99.90
34698;DHT22;61391;50.922;6.928;2023-07-13T00:26:47;19.30;99.90
34698;DHT22;61391;50.922;6.928;2023-07-13T00:29:13;19.20;99.90
34698;DHT22;61391;50.922;6.928;2023-07-13T00:31:40;19.20;99.90
34698;DHT22;61391;50.922;6.928;2023-07-13T00:34:10;19.20;99.90
34698;DHT22;61391;50.922;6.928;2023-07-13T00:36:36;19.30;99.90
34698;DHT22;61391;50.922;6.928;2023-07-13T00:39:04;19.30;99.90
34698;DHT22;61391;50.922;6.928;2023-07-13T00:41:30;19.10;99.90
34698;DHT22;61391;50.922;6.928;2023-07-13T00:43:57;19.20;99.90
34698;DHT22;61391;50.922;6.928;2023-07-13T00:46:27;19.10;99.90
34698;DHT22;61391;50.922;6.928;2023-07-13T00:48:56;19.10;99.90
34698;DHT22;61391;50.922;6.928;2023-07-13T00:51:31;18.80;99.90
34698;DHT22;61391;50.922;6.928;2023-07-13T00:53:59;18.80;99.90
34698;DHT22;61391;50.922;6.928;2023-07-13T00:56:27;18.80;99.90
34698;DHT22;61391;50.922;6.928;2023-07-13T00:58:54;18.60;99.90
34698;DHT22;61391;50.922;6.928;2023-07-13T01:01:22;18.60;99.90
34698;DHT22;61391;50.922;6.928;2023-07-13T01:03:49;18.60;99.90
34698;DHT22;61391;50.922;6.928;2023-07-13T01:06:17;18.60;99.90
34698;DHT22;61391;50.922;6.928;2023-07-13T01:08:43;18.50;99.90
34698;DHT22;61391;50.922;6.928;2023-07-13T01:11:18;18.40;99.90
34698;DHT22;61391;50.922;6.928;2023-07-13T01:13:46;18.40;99.90
34698;DHT22;61391;50.922;6.928;2023-07-13T01:16:18;18.40;99.90
34698;DHT22;61391;50.922;6.928;2023-07-13T01:18:48;18.40;99.90
34698;DHT22;61391;50.922;6.928;2023-07-13T01:21:15;18.20;99.90
34698;DHT22;61391;50.922;6.928;2023-07-13T01:23:44;18.40;99.90
34698;DHT22;61391;50.922;6.928;2023-07-13T01:26:10;18.40;99.90
34698;DHT22;61391;50.922;6.928;2023-07-13T01:28:37;18.40;99.90
34698;DHT22;61391;50.922;6.928;2023-07-13T01:31:05;18.40;99.90
34698;DHT22;61391;50.922;6.928;2023-07-13T01:33:40;18.30;99.90
34698;DHT22;61391;50.922;6.928;2023-07-13T01:36:10;18.40;99.90
34698;DHT22;61391;50.922;6.928;2023-07-13T01:38:42;18.40;99.90
34698;DHT22;61391;50.922;6.928;2023-07-13T01:41:18;18.20;99.90
34698;DHT22;61391;50.922;6.928;2023-07-13T01:43:43;18.20;99.90
34698;DHT22;61391;50.922;6.928;2023-07-13T01:46:09;18.00;99.90
34698;DHT22;61391;50.922;6.928;2023-07-13T01:48:35;18.00;99.90
34698;DHT22;61391;50.922;6.928;2023-07-13T01:51:02;18.00;99.90
34698;DHT22;61391;50.922;6.928;2023-07-13T01:53:29;18.00;99.90
34698;DHT22;61391;50.922;6.928;2023-07-13T01:59:16;18.10;99.90
34698;DHT22;61391;50.922;6.928;2023-07-13T02:01:46;18.20;99.90
34698;DHT22;61391;50.922;6.928;2023-07-13T02:04:14;18.20;99.90
34698;DHT22;61391;50.922;6.928;2023-07-13T02:06:40;18.10;99.90
34698;DHT22;61391;50.922;6.928;2023-07-13T02:09:07;17.70;99.90
34698;DHT22;61391;50.922;6.928;2023-07-13T02:11:35;17.90;99.90
34698;DHT22;61391;50.922;6.928;2023-07-13T02:14:01;18.00;99.90
34698;DHT22;61391;50.922;6.928;2023-07-13T02:16:28;18.00;99.90
34698;DHT22;61391;50.922;6.928;2023-07-13T02:19:16;18.00;99.90
34698;DHT22;61391;50.922;6.928;2023-07-13T02:21:43;17.90;99.90
34698;DHT22;61391;50.922;6.928;2023-07-13T02:24:09;18.00;99.90
34698;DHT22;61391;50.922;6.928;2023-07-13T02:26:40;17.90;99.90
34698;DHT22;61391;50.922;6.928;2023-07-13T02:29:06;18.00;99.90
34698;DHT22;61391;50.922;6.928;2023-07-13T02:31:31;18.10;99.90
34698;DHT22;61391;50.922;6.928;2023-07-13T02:33:57;18.10;99.90
34698;DHT22;61391;50.922;6.928;2023-07-13T02:36:29;18.30;99.90
34698;DHT22;61391;50.922;6.928;2023-07-13T02:39:02;18.30;99.90
34698;DHT22;61391;50.922;6.928;2023-07-13T02:41:39;18.30;99.90
34698;DHT22;61391;50.922;6.928;2023-07-13T02:44:05;18.40;99.90
34698;DHT22;61391;50.922;6.928;2023-07-13T02:46:36;18.30;99.90
34698;DHT22;61391;50.922;6.928;2023-07-13T02:49:04;18.30;99.90
34698;DHT22;61391;50.922;6.928;2023-07-13T02:54:52;18.40;99.90
34698;DHT22;61391;50.922;6.928;2023-07-13T02:57:19;18.50;99.90
34698;DHT22;61391;50.922;6.928;2023-07-13T02:59:47;18.40;99.90
34698;DHT22;61391;50.922;6.928;2023-07-13T03:02:13;18.30;99.90
34698;DHT22;61391;50.922;6.928;2023-07-13T03:04:42;18.10;99.90
34698;DHT22;61391;50.922;6.928;2023-07-13T03:07:09;18.20;99.90
34698;DHT22;61391;50.922;6.928;2023-07-13T03:09:35;18.10;99.90
34698;DHT22;61391;50.922;6.928;2023-07-13T03:12:02;18.20;99.90
34698;DHT22;61391;50.922;6.928;2023-07-13T03:14:31;18.20;99.90
34698;DHT22;61391;50.922;6.928;2023-07-13T03:16:58;18.10;99.90
34698;DHT22;61391;50.922;6.928;2023-07-13T03:19:24;18.00;99.90
34698;DHT22;61391;50.922;6.928;2023-07-13T03:21:53;17.90;99.90
34698;DHT22;61391;50.922;6.928;2023-07-13T03:24:22;17.90;99.90
34698;DHT22;61391;50.922;6.928;2023-07-13T03:26:52;17.90;99.90
34698;DHT22;61391;50.922;6.928;2023-07-13T03:29:18;18.00;99.90
34698;DHT22;61391;50.922;6.928;2023-07-13T03:31:45;17.90;99.90
34698;DHT22;61391;50.922;6.928;2023-07-13T03:34:10;17.80;99.90
34698;DHT22;61391;50.922;6.928;2023-07-13T03:36:39;17.70;99.90
34698;DHT22;61391;50.922;6.928;2023-07-13T03:39:15;17.60;99.90
34698;DHT22;61391;50.922;6.928;2023-07-13T03:41:42;17.70;99.90
34698;DHT22;61391;50.922;6.928;2023-07-13T03:44:11;17.80;99.90
34698;DHT22;61391;50.922;6.928;2023-07-13T03:46:37;17.90;99.90
34698;DHT22;61391;50.922;6.928;2023-07-13T03:49:04;17.90;99.90
34698;DHT22;61391;50.922;6.928;2023-07-13T03:51:30;17.90;99.90
34698;DHT22;61391;50.922;6.928;2023-07-13T03:53:57;17.90;99.90
34698;DHT22;61391;50.922;6.928;2023-07-13T03:56:23;17.90;99.90
34698;DHT22;61391;50.922;6.928;2023-07-13T03:58:51;17.90;99.90
34698;DHT22;61391;50.922;6.928;2023-07-13T04:01:21;17.80;99.90
34698;DHT22;61391;50.922;6.928;2023-07-13T04:03:49;17.80;99.90
34698;DHT22;61391;50.922;6.928;2023-07-13T04:06:18;17.80;99.90
34698;DHT22;61391;50.922;6.928;2023-07-13T04:08:52;17.90;99.90
34698;DHT22;61391;50.922;6.928;2023-07-13T04:11:21;17.90;99.90
34698;DHT22;61391;50.922;6.928;2023-07-13T04:13:49;17.90;99.90
34698;DHT22;61391;50.922;6.928;2023-07-13T04:16:15;17.80;99.90
34698;DHT22;61391;50.922;6.928;2023-07-13T04:18:41;17.80;99.90
34698;DHT22;61391;50.922;6.928;2023-07-13T04:21:08;17.90;99.90
34698;DHT22;61391;50.922;6.928;2023-07-13T04:23:36;17.90;99.90
34698;DHT22;61391;50.922;6.928;2023-07-13T04:26:04;17.80;99.90
34698;DHT22;61391;50.922;6.928;2023-07-13T04:28:32;18.00;99.90
34698;DHT22;61391;50.922;6.928;2023-07-13T04:31:10;18.00;99.90
34698;DHT22;61391;50.922;6.928;2023-07-13T04:33:38;17.90;99.90
34698;DHT22;61391;50.922;6.928;2023-07-13T04:36:05;17.90;99.90
34698;DHT22;61391;50.922;6.928;2023-07-13T04:38:32;18.20;99.90
34698;DHT22;61391;50.922;6.928;2023-07-13T04:41:04;18.30;99.90
34698;DHT22;61391;50.922;6.928;2023-07-13T04:43:31;18.30;99.90
34698;DHT22;61391;50.922;6.928;2023-07-13T04:46:03;18.30;99.90
34698;DHT22;61391;50.922;6.928;2023-07-13T04:48:29;18.30;99.90
34698;DHT22;61391;50.922;6.928;2023-07-13T04:50:57;18.10;99.90
34698;DHT22;61391;50.922;6.928;2023-07-13T04:53:24;18.10;99.90
34698;DHT22;61391;50.922;6.928;2023-07-13T04:55:50;18.10;99.90
34698;DHT22;61391;50.922;6.928;2023-07-13T04:58:18;18.10;99.90
34698;DHT22;61391;50.922;6.928;2023-07-13T05:00:44;18.10;99.90
34698;DHT22;61391;50.922;6.928;2023-07-13T05:03:09;17.90;99.90
34698;DHT22;61391;50.922;6.928;2023-07-13T05:08:57;18.20;99.90
34698;DHT22;61391;50.922;6.928;2023-07-13T05:11:23;18.30;99.90
34698;DHT22;61391;50.922;6.928;2023-07-13T05:13:50;18.10;99.90
34698;DHT22;61391;50.922;6.928;2023-07-13T05:16:16;18.00;99.90
34698;DHT22;61391;50.922;6.928;2023-07-13T05:18:41;18.10;99.90
34698;DHT22;61391;50.922;6.928;2023-07-13T05:21:10;18.20;99.90
34698;DHT22;61391;50.922;6.928;2023-07-13T05:23:36;18.40;99.90
34698;DHT22;61391;50.922;6.928;2023-07-13T05:26:03;18.30;99.90
34698;DHT22;61391;50.922;6.928;2023-07-13T05:28:30;18.10;99.90
34698;DHT22;61391;50.922;6.928;2023-07-13T05:30:57;18.00;99.90
34698;DHT22;61391;50.922;6.928;2023-07-13T05:33:24;18.20;99.90
34698;DHT22;61391;50.922;6.928;2023-07-13T05:35:51;18.20;99.90
34698;DHT22;61391;50.922;6.928;2023-07-13T05:38:17;18.20;99.90
34698;DHT22;61391;50.922;6.928;2023-07-13T05:40:44;18.40;99.90
34698;DHT22;61391;50.922;6.928;2023-07-13T05:43:20;18.40;99.90
34698;DHT22;61391;50.922;6.928;2023-07-13T05:49:08;18.60;99.90
34698;DHT22;61391;50.922;6.928;2023-07-13T05:51:33;18.90;99.90
34698;DHT22;61391;50.922;6.928;2023-07-13T05:53:59;19.00;99.90
34698;DHT22;61391;50.922;6.928;2023-07-13T05:56:25;19.10;99.90
34698;DHT22;61391;50.922;6.928;2023-07-13T05:58:53;19.20;99.90
34698;DHT22;61391;50.922;6.928;2023-07-13T06:01:19;19.40;99.90
34698;DHT22;61391;50.922;6.928;2023-07-13T06:03:53;19.50;99.90
34698;DHT22;61391;50.922;6.928;2023-07-13T06:06:23;19.70;99.90
34698;DHT22;61391;50.922;6.928;2023-07-13T06:08:50;19.80;99.90
34698;DHT22;61391;50.922;6.928;2023-07-13T06:11:23;20.00;99.90
34698;DHT22;61391;50.922;6.928;2023-07-13T06:13:50;20.00;99.90
34698;DHT22;61391;50.922;6.928;2023-07-13T06:16:17;19.80;99.90
34698;DHT22;61391;50.922;6.928;2023-07-13T06:18:42;19.70;99.90
34698;DHT22;61391;50.922;6.928;2023-07-13T06:21:14;19.70;99.90
34698;DHT22;61391;50.922;6.928;2023-07-13T06:23:43;19.60;99.90
34698;DHT22;61391;50.922;6.928;2023-07-13T06:26:09;19.60;99.90
34698;DHT22;61391;50.922;6.928;2023-07-13T06:28:36;19.70;99.90
34698;DHT22;61391;50.922;6.928;2023-07-13T06:31:13;19.80;99.90
34698;DHT22;61391;50.922;6.928;2023-07-13T06:33:40;19.90;99.90
34698;DHT22;61391;50.922;6.928;2023-07-13T06:36:07;20.10;99.90
34698;DHT22;61391;50.922;6.928;2023-07-13T06:38:35;20.20;99.90
34698;DHT22;61391;50.922;6.928;2023-07-13T06:41:01;20.00;99.90
34698;DHT22;61391;50.922;6.928;2023-07-13T06:43:28;20.00;99.90
34698;DHT22;61391;50.922;6.928;2023-07-13T06:45:56;20.10;99.90
34698;DHT22;61391;50.922;6.928;2023-07-13T06:48:22;20.30;99.90
34698;DHT22;61391;50.922;6.928;2023-07-13T06:50:49;20.50;99.90
34698;DHT22;61391;50.922;6.928;2023-07-13T06:53:19;20.80;99.90
34698;DHT22;61391;50.922;6.928;2023-07-13T06:59:08;21.20;99.90
34698;DHT22;61391;50.922;6.928;2023-07-13T07:01:39;21.20;99.90
34698;DHT22;61391;50.922;6.928;2023-07-13T07:04:06;21.20;99.90
34698;DHT22;61391;50.922;6.928;2023-07-13T07:06:39;21.20;99.90
34698;DHT22;61391;50.922;6.928;2023-07-13T07:09:04;21.30;99.90
34698;DHT22;61391;50.922;6.928;2023-07-13T07:11:31;21.30;99.90
34698;DHT22;61391;50.922;6.928;2023-07-13T07:14:00;21.30;99.90
34698;DHT22;61391;50.922;6.928;2023-07-13T07:19:49;21.50;99.90
34698;DHT22;61391;50.922;6.928;2023-07-13T07:22:38;21.70;99.90
34698;DHT22;61391;50.922;6.928;2023-07-13T07:25:04;21.80;99.90
34698;DHT22;61391;50.922;6.928;2023-07-13T07:27:53;22.10;99.90
34698;DHT22;61391;50.922;6.928;2023-07-13T07:30:20;22.10;99.90
34698;DHT22;61391;50.922;6.928;2023-07-13T07:32:47;22.10;99.90
34698;DHT22;61391;50.922;6.928;2023-07-13T07:38:40;22.20;99.90
34698;DHT22;61391;50.922;6.928;2023-07-13T07:44:36;22.50;99.90
34698;DHT22;61391;50.922;6.928;2023-07-13T07:47:11;22.80;99.90
34698;DHT22;61391;50.922;6.928;2023-07-13T07:49:37;22.70;99.90
34698;DHT22;61391;50.922;6.928;2023-07-13T07:55:26;22.00;99.90
34698;DHT22;61391;50.922;6.928;2023-07-13T07:57:58;22.30;99.90
34698;DHT22;61391;50.922;6.928;2023-07-13T08:00:25;22.70;99.90
34698;DHT22;61391;50.922;6.928;2023-07-13T08:02:52;22.80;99.90
34698;DHT22;61391;50.922;6.928;2023-07-13T08:05:18;23.10;99.90
34698;DHT22;61391;50.922;6.928;2023-07-13T08:07:55;23.00;99.90
34698;DHT22;61391;50.922;6.928;2023-07-13T08:10:22;23.00;99.90
34698;DHT22;61391;50.922;6.928;2023-07-13T08:12:54;23.00;99.90
34698;DHT22;61391;50.922;6.928;2023-07-13T08:15:21;23.10;99.90
34698;DHT22;61391;50.922;6.928;2023-07-13T08:17:48;23.10;99.90
34698;DHT22;61391;50.922;6.928;2023-07-13T08:20:14;23.30;99.90
34698;DHT22;61391;50.922;6.928;2023-07-13T08:22:47;23.60;99.90
34698;DHT22;61391;50.922;6.928;2023-07-13T08:25:28;23.60;99.90
34698;DHT22;61391;50.922;6.928;2023-07-13T08:27:54;23.70;99.90
34698;DHT22;61391;50.922;6.928;2023-07-13T08:30:26;23.80;99.90
34698;DHT22;61391;50.922;6.928;2023-07-13T08:33:29;24.00;99.90
34698;DHT22;61391;50.922;6.928;2023-07-13T08:36:00;24.00;99.90
34698;DHT22;61391;50.922;6.928;2023-07-13T08:38:35;24.30;99.90
34698;DHT22;61391;50.922;6.928;2023-07-13T08:41:28;24.80;99.90
34698;DHT22;61391;50.922;6.928;2023-07-13T08:43:59;25.20;99.90
34698;DHT22;61391;50.922;6.928;2023-07-13T08:46:40;25.40;99.90
34698;DHT22;61391;50.922;6.928;2023-07-13T08:49:16;25.20;99.90
34698;DHT22;61391;50.922;6.928;2023-07-13T08:52:23;25.10;99.90
34698;DHT22;61391;50.922;6.928;2023-07-13T08:54:55;25.40;99.90
34698;DHT22;61391;50.922;6.928;2023-07-13T08:57:33;25.80;99.90
34698;DHT22;61391;50.922;6.928;2023-07-13T09:03:42;25.70;99.90
34698;DHT22;61391;50.922;6.928;2023-07-13T09:06:14;25.20;99.90
34698;DHT22;61391;50.922;6.928;2023-07-13T09:08:55;24.80;99.90
34698;DHT22;61391;50.922;6.928;2023-07-13T09:12:07;24.60;99.90
34698;DHT22;61391;50.922;6.928;2023-07-13T09:15:21;24.60;99.90
34698;DHT22;61391;50.922;6.928;2023-07-13T09:21:34;24.20;99.90
34698;DHT22;61391;50.922;6.928;2023-07-13T09:27:29;24.70;99.90
34698;DHT22;61391;50.922;6.928;2023-07-13T09:30:28;25.00;99.90
34698;DHT22;61391;50.922;6.928;2023-07-13T09:33:06;25.60;99.90
34698;DHT22;61391;50.922;6.928;2023-07-13T09:35:34;26.10;99.90
34698;DHT22;61391;50.922;6.928;2023-07-13T09:38:16;26.00;99.90
34698;DHT22;61391;50.922;6.928;2023-07-13T09:44:07;26.30;99.90
34698;DHT22;61391;50.922;6.928;2023-07-13T09:46:58;26.80;99.90
34698;DHT22;61391;50.922;6.928;2023-07-13T09:49:34;27.30;99.90
34698;DHT22;61391;50.922;6.928;2023-07-13T09:52:04;27.30;99.90
34698;DHT22;61391;50.922;6.928;2023-07-13T09:54:52;27.10;99.70
34698;DHT22;61391;50.922;6.928;2023-07-13T09:57:24;26.70;99.90
34698;DHT22;61391;50.922;6.928;2023-07-13T09:59:55;26.90;99.40
34698;DHT22;61391;50.922;6.928;2023-07-13T10:02:33;27.00;98.10
34698;DHT22;61391;50.922;6.928;2023-07-13T10:05:05;27.10;98.10
34698;DHT22;61391;50.922;6.928;2023-07-13T10:07:57;26.90;97.00
34698;DHT22;61391;50.922;6.928;2023-07-13T10:10:24;27.20;96.90
34698;DHT22;61391;50.922;6.928;2023-07-13T10:13:25;27.20;96.80
34698;DHT22;61391;50.922;6.928;2023-07-13T10:15:52;27.80;95.70
34698;DHT22;61391;50.922;6.928;2023-07-13T10:18:25;28.50;94.90
34698;DHT22;61391;50.922;6.928;2023-07-13T10:21:11;28.60;94.10
34698;DHT22;61391;50.922;6.928;2023-07-13T10:27:32;30.00;92.80
34698;DHT22;61391;50.922;6.928;2023-07-13T10:32:34;31.90;86.30
34698;DHT22;61391;50.922;6.928;2023-07-13T10:35:00;31.70;83.40
34698;DHT22;61391;50.922;6.928;2023-07-13T10:37:43;31.50;82.60
34698;DHT22;61391;50.922;6.928;2023-07-13T10:43:42;32.50;80.00
34698;DHT22;61391;50.922;6.928;2023-07-13T10:46:14;32.40;79.20
34698;DHT22;61391;50.922;6.928;2023-07-13T10:48:46;31.40;80.20
34698;DHT22;61391;50.922;6.928;2023-07-13T10:51:17;30.60;81.70
34698;DHT22;61391;50.922;6.928;2023-07-13T10:53:46;30.30;82.70
34698;DHT22;61391;50.922;6.928;2023-07-13T10:56:30;29.80;83.30
34698;DHT22;61391;50.922;6.928;2023-07-13T10:59:15;29.40;85.20
34698;DHT22;61391;50.922;6.928;2023-07-13T11:36:23;26.20;92.40
34698;DHT22;61391;50.922;6.928;2023-07-13T11:56:15;25.10;97.40
34698;DHT22;61391;50.922;6.928;2023-07-13T12:09:30;25.80;95.90
34698;DHT22;61391;50.922;6.928;2023-07-13T12:12:08;25.50;96.70
34698;DHT22;61391;50.922;6.928;2023-07-13T12:36:15;25.40;95.80
34698;DHT22;61391;50.922;6.928;2023-07-13T12:42:29;26.00;95.50
34698;DHT22;61391;50.922;6.928;2023-07-13T12:55:30;25.50;93.60
34698;DHT22;61391;50.922;6.928;2023-07-13T13:01:34;25.40;93.40
34698;DHT22;61391;50.922;6.928;2023-07-13T13:04:26;25.50;93.70
34698;DHT22;61391;50.922;6.928;2023-07-13T13:10:23;25.70;93.70
34698;DHT22;61391;50.922;6.928;2023-07-13T13:12:57;25.90;93.40
34698;DHT22;61391;50.922;6.928;2023-07-13T13:15:30;25.80;92.70
34698;DHT22;61391;50.922;6.928;2023-07-13T13:41:39;25.70;91.90
34698;DHT22;61391;50.922;6.928;2023-07-13T13:47:37;26.00;91.80
34698;DHT22;61391;50.922;6.928;2023-07-13T13:53:25;26.40;91.80
34698;DHT22;61391;50.922;6.928;2023-07-13T13:55:51;26.50;91.00
34698;DHT22;61391;50.922;6.928;2023-07-13T14:01:43;26.40;91.20
34698;DHT22;61391;50.922;6.928;2023-07-13T14:04:16;26.30;90.70
34698;DHT22;61391;50.922;6.928;2023-07-13T14:06:47;26.40;91.10
34698;DHT22;61391;50.922;6.928;2023-07-13T14:09:26;26.50;90.80
34698;DHT22;61391;50.922;6.928;2023-07-13T14:11:52;26.50;90.60
34698;DHT22;61391;50.922;6.928;2023-07-13T14:14:24;26.70;90.90
34698;DHT22;61391;50.922;6.928;2023-07-13T14:16:52;26.70;90.60
34698;DHT22;61391;50.922;6.928;2023-07-13T14:19:59;26.80;90.30
34698;DHT22;61391;50.922;6.928;2023-07-13T14:22:27;26.60;90.20
34698;DHT22;61391;50.922;6.928;2023-07-13T14:24:55;26.50;90.30
34698;DHT22;61391;50.922;6.928;2023-07-13T14:27:28;26.30;90.40
34698;DHT22;61391;50.922;6.928;2023-07-13T14:33:24;26.40;90.30
34698;DHT22;61391;50.922;6.928;2023-07-13T14:35:53;26.40;90.20
34698;DHT22;61391;50.922;6.928;2023-07-13T14:38:41;26.40;89.30
34698;DHT22;61391;50.922;6.928;2023-07-13T14:41:09;26.40;90.00
34698;DHT22;61391;50.922;6.928;2023-07-13T14:43:36;26.20;90.30
34698;DHT22;61391;50.922;6.928;2023-07-13T14:46:16;26.20;90.00
34698;DHT22;61391;50.922;6.928;2023-07-13T14:48:46;26.10;90.30
34698;DHT22;61391;50.922;6.928;2023-07-13T14:51:13;26.00;90.80
34698;DHT22;61391;50.922;6.928;2023-07-13T14:54:05;25.90;91.10
34698;DHT22;61391;50.922;6.928;2023-07-13T14:56:32;26.00;90.70
34698;DHT22;61391;50.922;6.928;2023-07-13T14:58:58;26.20;90.40
34698;DHT22;61391;50.922;6.928;2023-07-13T15:01:26;26.30;90.00
34698;DHT22;61391;50.922;6.928;2023-07-13T15:03:53;26.30;89.40
34698;DHT22;61391;50.922;6.928;2023-07-13T15:06:20;26.40;89.70
34698;DHT22;61391;50.922;6.928;2023-07-13T15:12:10;26.40;89.50
34698;DHT22;61391;50.922;6.928;2023-07-13T15:14:38;26.20;89.70
34698;DHT22;61391;50.922;6.928;2023-07-13T15:17:17;26.00;89.50
34698;DHT22;61391;50.922;6.928;2023-07-13T15:19:48;25.90;89.70
34698;DHT22;61391;50.922;6.928;2023-07-13T15:22:16;25.50;90.20
34698;DHT22;61391;50.922;6.928;2023-07-13T15:24:43;25.50;91.00
34698;DHT22;61391;50.922;6.928;2023-07-13T15:27:15;25.70;91.10
34698;DHT22;61391;50.922;6.928;2023-07-13T15:29:44;25.90;90.30
34698;DHT22;61391;50.922;6.928;2023-07-13T15:32:13;26.00;90.70
34698;DHT22;61391;50.922;6.928;2023-07-13T15:34:51;26.20;90.80
34698;DHT22;61391;50.922;6.928;2023-07-13T15:37:19;26.10;90.80
34698;DHT22;61391;50.922;6.928;2023-07-13T15:43:13;26.10;91.00
34698;DHT22;61391;50.922;6.928;2023-07-13T15:45:42;26.10;90.50
34698;DHT22;61391;50.922;6.928;2023-07-13T15:51:01;25.90;90.60
34698;DHT22;61391;50.922;6.928;2023-07-13T15:53:33;26.00;90.70
34698;DHT22;61391;50.922;6.928;2023-07-13T15:59:23;25.90;90.90
34698;DHT22;61391;50.922;6.928;2023-07-13T16:01:51;25.80;91.20
34698;DHT22;61391;50.922;6.928;2023-07-13T16:04:18;25.70;92.10
34698;DHT22;61391;50.922;6.928;2023-07-13T16:06:48;25.60;93.00
34698;DHT22;61391;50.922;6.928;2023-07-13T16:12:38;25.10;95.70
34698;DHT22;61391;50.922;6.928;2023-07-13T16:15:20;25.00;97.20
34698;DHT22;61391;50.922;6.928;2023-07-13T16:21:13;24.80;99.20
34698;DHT22;61391;50.922;6.928;2023-07-13T16:23:43;24.80;99.80
34698;DHT22;61391;50.922;6.928;2023-07-13T16:26:35;24.80;99.90
34698;DHT22;61391;50.922;6.928;2023-07-13T16:29:24;24.70;99.90
34698;DHT22;61391;50.922;6.928;2023-07-13T16:32:12;24.50;99.90
34698;DHT22;61391;50.922;6.928;2023-07-13T16:34:41;24.50;99.90
34698;DHT22;61391;50.922;6.928;2023-07-13T16:37:21;24.50;99.90
34698;DHT22;61391;50.922;6.928;2023-07-13T16:46:21;24.60;99.90
34698;DHT22;61391;50.922;6.928;2023-07-13T16:48:54;24.60;99.90
34698;DHT22;61391;50.922;6.928;2023-07-13T16:51:41;24.50;99.90
34698;DHT22;61391;50.922;6.928;2023-07-13T16:54:09;24.50;99.90
34698;DHT22;61391;50.922;6.928;2023-07-13T16:56:35;24.70;99.90
34698;DHT22;61391;50.922;6.928;2023-07-13T17:02:33;24.60;99.90
34698;DHT22;61391;50.922;6.928;2023-07-13T17:11:45;24.60;99.90
34698;DHT22;61391;50.922;6.928;2023-07-13T17:17:47;24.80;99.90
34698;DHT22;61391;50.922;6.928;2023-07-13T17:20:25;24.60;99.90
34698;DHT22;61391;50.922;6.928;2023-07-13T17:43:28;24.30;99.90
34698;DHT22;61391;50.922;6.928;2023-07-13T17:49:28;24.30;99.90
34698;DHT22;61391;50.922;6.928;2023-07-13T17:52:09;24.30;99.90
34698;DHT22;61391;50.922;6.928;2023-07-13T17:54:48;24.30;99.90
34698;DHT22;61391;50.922;6.928;2023-07-13T18:17:59;23.80;99.90
34698;DHT22;61391;50.922;6.928;2023-07-13T18:27:27;23.70;99.90
34698;DHT22;61391;50.922;6.928;2023-07-13T18:30:02;23.70;99.90
34698;DHT22;61391;50.922;6.928;2023-07-13T18:33:04;23.60;99.90
34698;DHT22;61391;50.922;6.928;2023-07-13T18:35:45;23.60;99.90
34698;DHT22;61391;50.922;6.928;2023-07-13T18:38:42;23.60;99.90
34698;DHT22;61391;50.922;6.928;2023-07-13T18:41:28;23.50;99.90
34698;DHT22;61391;50.922;6.928;2023-07-13T18:47:20;23.50;99.90
34698;DHT22;61391;50.922;6.928;2023-07-13T18:53:14;23.40;99.90
34698;DHT22;61391;50.922;6.928;2023-07-13T18:58:45;23.40;99.90
34698;DHT22;61391;50.922;6.928;2023-07-13T19:07:55;23.20;99.90
34698;DHT22;61391;50.922;6.928;2023-07-13T19:10:34;23.20;99.90
34698;DHT22;61391;50.922;6.928;2023-07-13T19:13:00;23.30;99.90
34698;DHT22;61391;50.922;6.928;2023-07-13T19:18:57;23.30;99.90
34698;DHT22;61391;50.922;6.928;2023-07-13T19:31:42;23.30;99.90
34698;DHT22;61391;50.922;6.928;2023-07-13T19:37:36;23.30;99.90
34698;DHT22;61391;50.922;6.928;2023-07-13T19:40:23;23.20;99.90
34698;DHT22;61391;50.922;6.928;2023-07-13T19:46:30;22.70;99.90
34698;DHT22;61391;50.922;6.928;2023-07-13T19:52:26;22.90;99.90
34698;DHT22;61391;50.922;6.928;2023-07-13T19:58:15;22.80;99.90
34698;DHT22;61391;50.922;6.928;2023-07-13T20:00:42;22.70;99.90
34698;DHT22;61391;50.922;6.928;2023-07-13T20:06:33;22.40;99.90
34698;DHT22;61391;50.922;6.928;2023-07-13T20:12:33;22.50;99.90
34698;DHT22;61391;50.922;6.928;2023-07-13T20:18:57;22.80;99.90
34698;DHT22;61391;50.922;6.928;2023-07-13T20:21:24;22.80;99.90
34698;DHT22;61391;50.922;6.928;2023-07-13T20:23:57;22.80;99.90
34698;DHT22;61391;50.922;6.928;2023-07-13T20:26:57;22.70;99.90
34698;DHT22;61391;50.922;6.928;2023-07-13T20:33:19;22.70;99.90
34698;DHT22;61391;50.922;6.928;2023-07-13T20:36:03;22.80;99.90
34698;DHT22;61391;50.922;6.928;2023-07-13T20:38:47;22.60;99.90
34698;DHT22;61391;50.922;6.928;2023-07-13T20:44:36;22.50;99.90
34698;DHT22;61391;50.922;6.928;2023-07-13T20:50:00;22.40;99.90
34698;DHT22;61391;50.922;6.928;2023-07-13T20:52:33;22.30;99.90
34698;DHT22;61391;50.922;6.928;2023-07-13T20:58:35;22.10;99.90
34698;DHT22;61391;50.922;6.928;2023-07-13T21:01:02;21.90;99.90
34698;DHT22;61391;50.922;6.928;2023-07-13T21:03:29;21.90;99.90
34698;DHT22;61391;50.922;6.928;2023-07-13T21:06:06;22.00;99.90
34698;DHT22;61391;50.922;6.928;2023-07-13T21:08:32;21.90;99.90
34698;DHT22;61391;50.922;6.928;2023-07-13T21:11:00;21.90;99.90
34698;DHT22;61391;50.922;6.928;2023-07-13T21:13:27;21.70;99.90
34698;DHT22;61391;50.922;6.928;2023-07-13T21:15:54;21.60;99.90
34698;DHT22;61391;50.922;6.928;2023-07-13T21:18:22;21.60;99.90
34698;DHT22;61391;50.922;6.928;2023-07-13T21:20:55;21.60;99.90
34698;DHT22;61391;50.922;6.928;2023-07-13T21:23:29;21.40;99.90
34698;DHT22;61391;50.922;6.928;2023-07-13T21:25:58;21.20;99.90
34698;DHT22;61391;50.922;6.928;2023-07-13T21:28:25;21.40;99.90
34698;DHT22;61391;50.922;6.928;2023-07-13T21:30:52;21.40;99.90
34698;DHT22;61391;50.922;6.928;2023-07-13T21:33:19;21.40;99.90
34698;DHT22;61391;50.922;6.928;2023-07-13T21:35:47;21.50;99.90
34698;DHT22;61391;50.922;6.928;2023-07-13T21:38:36;21.40;99.90
34698;DHT22;61391;50.922;6.928;2023-07-13T21:41:15;21.40;99.90
34698;DHT22;61391;50.922;6.928;2023-07-13T21:43:43;21.10;99.90
34698;DHT22;61391;50.922;6.928;2023-07-13T21:46:13;20.90;99.90
34698;DHT22;61391;50.922;6.928;2023-07-13T21:48:39;20.70;99.90
34698;DHT22;61391;50.922;6.928;2023-07-13T21:51:16;20.60;99.90
34698;DHT22;61391;50.922;6.928;2023-07-13T21:53:43;20.80;99.90